TimeCST,TemperatureF,Dew PointF,Humidity,Sea Level PressureIn,VisibilityMPH,Wind Direction,Wind SpeedMPH,Gust SpeedMPH,PrecipitationIn,Events,Conditions,WindDirDegrees,DateUTC
12:15 AM,44.6,35.6,71,30.24,10.0,NW,4.6,-,N/A,,Clear,310,2012-11-23 06:15:00
12:35 AM,42.8,35.6,76,30.25,10.0,NW,3.5,-,N/A,,Clear,310,2012-11-23 06:35:00
1:15 AM,42.8,35.6,76,30.26,10.0,WNW,3.5,-,N/A,,Clear,290,2012-11-23 07:15:00
1:35 AM,42.8,33.8,70,30.26,10.0,Calm,Calm,-,N/A,,Clear,0,2012-11-23 07:35:00
1:55 AM,42.8,33.8,70,30.25,10.0,West,5.8,-,N/A,,Clear,260,2012-11-23 07:55:00
2:35 AM,41.0,32.0,70,30.25,10.0,WSW,4.6,-,N/A,,Clear,250,2012-11-23 08:35:00
2:55 AM,41.0,32.0,70,30.26,10.0,West,6.9,-,N/A,,Clear,280,2012-11-23 08:55:00
3:15 AM,41.0,32.0,70,30.26,10.0,WNW,10.4,-,N/A,,Clear,290,2012-11-23 09:15:00
3:35 AM,42.8,32.0,66,30.26,10.0,WNW,13.8,20.7,N/A,,Clear,300,2012-11-23 09:35:00
3:55 AM,42.8,32.0,66,30.26,10.0,WNW,13.8,19.6,N/A,,Clear,290,2012-11-23 09:55:00
4:15 AM,42.8,30.2,61,30.26,10.0,WNW,19.6,26.5,N/A,,Clear,300,2012-11-23 10:15:00
4:35 AM,41.0,28.4,61,30.28,10.0,NW,15.0,23.0,N/A,,Clear,310,2012-11-23 10:35:00
4:55 AM,39.2,23.0,52,30.30,10.0,NW,21.9,36.8,N/A,,Unknown,310,2012-11-23 10:55:00
5:15 AM,37.4,23.0,56,30.31,10.0,WNW,18.4,27.6,N/A,,Clear,300,2012-11-23 11:15:00
5:35 AM,35.6,23.0,60,30.32,10.0,NW,18.4,35.7,N/A,,Mostly Cloudy,310,2012-11-23 11:35:00
5:55 AM,35.6,23.0,60,30.33,10.0,NW,20.7,29.9,N/A,,Overcast,320,2012-11-23 11:55:00
6:15 AM,35.6,21.2,56,30.34,10.0,NW,21.9,29.9,N/A,,Overcast,310,2012-11-23 12:15:00
6:35 AM,33.8,19.4,56,30.36,10.0,NW,15.0,25.3,N/A,,Overcast,310,2012-11-23 12:35:00
6:55 AM,33.8,19.4,56,30.37,10.0,NW,15.0,28.8,N/A,,Scattered Clouds,320,2012-11-23 12:55:00
7:15 AM,32.0,19.4,60,30.39,10.0,NW,19.6,25.3,N/A,,Clear,320,2012-11-23 13:15:00
7:35 AM,32.0,19.4,60,30.40,10.0,NW,17.3,28.8,N/A,,Clear,320,2012-11-23 13:35:00
7:55 AM,32.0,19.4,60,30.41,10.0,NW,17.3,24.2,N/A,,Clear,310,2012-11-23 13:55:00
8:15 AM,32.0,19.4,60,30.42,10.0,WNW,12.7,23.0,N/A,,Clear,300,2012-11-23 14:15:00
8:35 AM,32.0,19.4,60,30.43,10.0,WNW,19.6,26.5,N/A,,Clear,290,2012-11-23 14:35:00
8:55 AM,32.0,19.4,60,30.44,10.0,NW,15.0,24.2,N/A,,Clear,310,2012-11-23 14:55:00
9:15 AM,32.0,19.4,60,30.45,10.0,NW,20.7,25.3,N/A,,Clear,310,2012-11-23 15:15:00
9:35 AM,32.0,17.6,55,30.46,10.0,NW,18.4,31.1,N/A,,Clear,320,2012-11-23 15:35:00
9:55 AM,32.0,19.4,60,30.46,10.0,NW,19.6,26.5,N/A,,Clear,310,2012-11-23 15:55:00
10:15 AM,32.0,19.4,60,30.47,10.0,NW,19.6,24.2,N/A,,Clear,310,2012-11-23 16:15:00
10:35 AM,32.0,19.4,60,30.47,10.0,WNW,18.4,28.8,N/A,,Clear,290,2012-11-23 16:35:00
10:55 AM,33.8,19.4,56,30.47,10.0,NW,15.0,20.7,N/A,,Clear,310,2012-11-23 16:55:00
11:35 AM,33.8,17.6,52,30.46,10.0,WNW,17.3,28.8,N/A,,Clear,290,2012-11-23 17:35:00
11:55 AM,35.6,17.6,48,30.45,10.0,WNW,16.1,24.2,N/A,,Clear,300,2012-11-23 17:55:00
12:15 PM,35.6,17.6,48,30.44,10.0,WNW,13.8,24.2,N/A,,Clear,300,2012-11-23 18:15:00
12:35 PM,35.6,17.6,48,30.44,10.0,WNW,19.6,26.5,N/A,,Clear,300,2012-11-23 18:35:00
1:15 PM,35.6,14.0,41,30.43,10.0,NNW,16.1,25.3,N/A,,Clear,340,2012-11-23 19:15:00
1:35 PM,35.6,14.0,41,30.44,10.0,NW,15.0,23.0,N/A,,Clear,310,2012-11-23 19:35:00
1:55 PM,37.4,14.0,38,30.42,10.0,NW,19.6,26.5,N/A,,Clear,310,2012-11-23 19:55:00
2:15 PM,37.4,14.0,38,30.42,10.0,NW,16.1,21.9,N/A,,Clear,310,2012-11-23 20:15:00
2:35 PM,37.4,12.2,36,30.42,10.0,NW,17.3,24.2,N/A,,Clear,320,2012-11-23 20:35:00
2:55 PM,37.4,12.2,36,30.42,10.0,NW,15.0,21.9,N/A,,Clear,310,2012-11-23 20:55:00
3:15 PM,37.4,12.2,36,30.42,10.0,NNW,13.8,21.9,N/A,,Clear,330,2012-11-23 21:15:00
3:35 PM,37.4,14.0,38,30.43,10.0,WNW,15.0,19.6,N/A,,Clear,300,2012-11-23 21:35:00
3:55 PM,37.4,14.0,38,30.43,10.0,WNW,17.3,21.9,N/A,,Clear,300,2012-11-23 21:55:00
4:15 PM,35.6,14.0,41,30.43,10.0,WNW,9.2,-,N/A,,Clear,300,2012-11-23 22:15:00
4:35 PM,35.6,12.2,38,30.42,10.0,WNW,13.8,-,N/A,,Clear,300,2012-11-23 22:35:00
4:55 PM,35.6,12.2,38,30.43,10.0,NW,11.5,-,N/A,,Clear,310,2012-11-23 22:55:00
5:15 PM,33.8,14.0,44,30.43,10.0,NW,8.1,-,N/A,,Clear,310,2012-11-23 23:15:00
5:35 PM,33.8,14.0,44,30.43,10.0,NW,9.2,-,N/A,,Clear,310,2012-11-23 23:35:00
6:15 PM,33.8,12.2,41,30.44,10.0,NW,6.9,-,N/A,,Unknown,320,2012-11-24 00:15:00
6:35 PM,32.0,12.2,44,30.44,10.0,NW,5.8,-,N/A,,Unknown,320,2012-11-24 00:35:00
7:15 PM,32.0,14.0,48,30.44,10.0,Calm,Calm,-,N/A,,Clear,0,2012-11-24 01:15:00
7:35 PM,32.0,14.0,48,30.44,10.0,Calm,Calm,-,N/A,,Clear,0,2012-11-24 01:35:00
8:15 PM,32.0,14.0,48,30.44,10.0,WNW,3.5,-,N/A,,Clear,300,2012-11-24 02:15:00
8:35 PM,30.2,14.0,51,30.44,10.0,NW,3.5,-,N/A,,Clear,310,2012-11-24 02:35:00
9:15 PM,30.2,14.0,51,30.44,10.0,Calm,Calm,-,N/A,,Clear,0,2012-11-24 03:15:00
9:35 PM,28.4,15.8,59,30.44,10.0,Calm,Calm,-,N/A,,Clear,0,2012-11-24 03:35:00
9:55 PM,26.6,15.8,64,30.43,10.0,Calm,Calm,-,N/A,,Clear,0,2012-11-24 03:55:00
10:15 PM,24.8,15.8,69,30.43,10.0,West,3.5,-,N/A,,Clear,280,2012-11-24 04:15:00
10:35 PM,24.8,17.6,74,30.43,10.0,Calm,Calm,-,N/A,,Clear,0,2012-11-24 04:35:00
10:55 PM,24.8,17.6,74,30.43,10.0,Calm,Calm,-,N/A,,Clear,0,2012-11-24 04:55:00
11:15 PM,24.8,17.6,74,30.43,10.0,Calm,Calm,-,N/A,,Clear,0,2012-11-24 05:15:00
11:35 PM,23.0,17.6,80,30.43,10.0,Calm,Calm,-,N/A,,Clear,0,2012-11-24 05:35:00